Time;durP1;ratioP1;P1;durP2;ratioP2;P2;SDS_P1;SDS_P2;PMS_P1;PMS_P2;Temp;Humidity;BMP_temperature;BMP_pressure;BME280_temperature;BME280_humidity;BME280_pressure;Samples;Min_cycle;Max_cycle;Signal;HPM_P1;HPM_P2
2022/03/02 00:01:21;;;;;;;2.30;2.20;;;;;;;0.09;52.29;101747.02;104020;1280;109423;-74
2022/03/02 00:03:49;;;;;;;2.20;2.10;;;;;;;0.11;52.26;101746.23;104057;1281;140568;-73
2022/03/02 00:06:17;;;;;;;1.90;1.90;;;;;;;0.12;52.01;101747.48;104174;1280;95176;-76
2022/03/02 00:08:44;;;;;;;2.10;2.00;;;;;;;0.12;51.97;101746.10;104140;1280;109988;-74
2022/03/02 00:11:13;;;;;;;2.00;2.00;;;;;;;0.09;51.87;101744.40;104182;1281;137460;-74
2022/03/02 00:13:40;;;;;;;2.00;2.00;;;;;;;0.05;52.26;101749.48;104295;1281;109280;-75
2022/03/02 00:16:08;;;;;;;2.00;2.00;;;;;;;-0.01;52.65;101744.52;104036;1281;140218;-76
2022/03/02 00:18:36;;;;;;;2.10;2.10;;;;;;;-0.03;52.42;101738.67;104157;1281;95786;-74
2022/03/02 00:21:04;;;;;;;2.00;2.00;;;;;;;0.03;52.24;101740.48;104016;1280;143608;-74
2022/03/02 00:23:32;;;;;;;1.90;1.90;;;;;;;-0.06;52.87;101733.87;104105;1281;100071;-73
2022/03/02 00:26:00;;;;;;;2.00;2.00;;;;;;;-0.10;53.13;101739.63;103873;1281;263533;-75
2022/03/02 00:28:27;;;;;;;1.90;1.90;;;;;;;-0.07;53.04;101739.08;103980;1281;140646;-75
2022/03/02 00:30:55;;;;;;;2.10;2.00;;;;;;;-0.02;52.67;101735.08;103805;1281;95237;-75
2022/03/02 00:33:23;;;;;;;2.00;2.00;;;;;;;-0.04;52.77;101736.04;104016;1281;142580;-73
2022/03/02 00:35:51;;;;;;;2.20;2.10;;;;;;;-0.07;53.01;101732.59;104107;1281;98852;-74
2022/03/02 00:38:18;;;;;;;1.90;1.90;;;;;;;-0.04;53.00;101734.61;104096;1281;110202;-74
2022/03/02 00:40:46;;;;;;;1.80;1.80;;;;;;;-0.06;53.14;101733.70;104043;1281;139784;-74
2022/03/02 00:43:14;;;;;;;1.70;1.70;;;;;;;-0.13;53.82;101733.41;104088;1281;95121;-73
2022/03/02 00:45:42;;;;;;;1.80;1.80;;;;;;;-0.19;54.01;101731.77;104004;1281;139622;-74
2022/03/02 00:48:10;;;;;;;2.30;2.20;;;;;;;-0.13;53.56;101730.80;104034;1281;100308;-76
2022/03/02 00:50:38;;;;;;;1.90;1.90;;;;;;;-0.12;53.28;101723.48;104076;1281;108307;-73
2022/03/02 00:53:07;;;;;;;2.00;2.00;;;;;;;-0.11;53.12;101723.38;103963;1281;139830;-74
2022/03/02 00:55:36;;;;;;;2.30;2.20;;;;;;;-0.13;53.45;101719.80;104377;1279;95335;-72
2022/03/02 00:58:05;;;;;;;1.90;1.90;;;;;;;-0.20;53.96;101719.02;103935;1281;141590;-73
2022/03/02 01:00:33;;;;;;;1.90;1.90;;;;;;;-0.19;53.88;101715.40;104080;1281;97814;-74
2022/03/02 01:03:01;;;;;;;2.00;2.00;;;;;;;-0.16;53.83;101714.80;103941;1281;141000;-73
2022/03/02 01:05:29;;;;;;;2.00;2.00;;;;;;;-0.10;53.80;101715.20;104048;1281;95280;-74
2022/03/02 01:07:57;;;;;;;2.00;2.00;;;;;;;-0.06;53.35;101713.79;104008;1281;95624;-74
2022/03/02 01:10:25;;;;;;;2.20;2.10;;;;;;;-0.07;53.45;101706.77;103919;1281;139688;-74
2022/03/02 01:12:52;;;;;;;2.20;2.10;;;;;;;-0.13;53.67;101706.20;104057;1279;99463;-74
2022/03/02 01:15:20;;;;;;;2.00;2.00;;;;;;;-0.16;53.89;101704.66;103971;1280;139835;-74
2022/03/02 01:17:48;;;;;;;2.00;2.00;;;;;;;-0.16;53.96;101705.01;104103;1281;95881;-76
2022/03/02 01:20:16;;;;;;;2.00;2.00;;;;;;;-0.12;53.90;101701.67;104104;1281;95246;-74
2022/03/02 01:22:43;;;;;;;1.90;1.90;;;;;;;-0.12;53.96;101700.97;103974;1279;139629;-74
2022/03/02 01:25:11;;;;;;;2.20;2.10;;;;;;;-0.19;54.24;101700.55;103969;1281;99100;-74
2022/03/02 01:27:39;;;;;;;2.10;2.10;;;;;;;-0.21;54.11;101697.85;103980;1281;140875;-74
2022/03/02 01:30:08;;;;;;;1.90;1.90;;;;;;;-0.15;53.95;101695.63;104086;1281;95198;-75
2022/03/02 01:32:36;;;;;;;2.50;2.40;;;;;;;-0.13;54.09;101692.55;104281;1280;97006;-73
2022/03/02 01:35:03;;;;;;;1.90;1.90;;;;;;;-0.11;54.16;101690.70;104072;1280;139325;-73
2022/03/02 01:37:31;;;;;;;2.30;2.20;;;;;;;-0.10;53.83;101687.29;104182;1281;98919;-76
2022/03/02 01:39:59;;;;;;;2.10;2.10;;;;;;;-0.10;53.92;101687.80;104033;1279;139268;-74
2022/03/02 01:42:27;;;;;;;1.90;1.90;;;;;;;-0.22;54.64;101687.00;104127;1280;98014;-73
2022/03/02 01:44:55;;;;;;;1.90;1.90;;;;;;;-0.19;54.47;101686.56;104121;1281;95167;-73
2022/03/02 01:47:27;;;;;;;1.90;1.90;;;;;;;-0.14;54.10;101685.38;103991;1281;140303;-76
2022/03/02 01:49:56;;;;;;;2.20;2.10;;;;;;;-0.14;54.21;101682.25;104021;1279;99406;-74
2022/03/02 01:52:24;;;;;;;1.90;1.90;;;;;;;-0.16;53.96;101679.88;104025;1281;139363;-74
2022/03/02 01:54:52;;;;;;;1.90;1.90;;;;;;;-0.23;54.40;101674.20;104242;1279;95263;-74
2022/03/02 01:57:20;;;;;;;2.00;2.00;;;;;;;-0.26;54.66;101673.59;104256;1279;140076;-74
2022/03/02 01:59:47;;;;;;;1.90;1.90;;;;;;;-0.26;54.78;101672.88;104138;1280;109791;-73
2022/03/02 02:02:15;;;;;;;2.00;2.00;;;;;;;-0.19;54.42;101670.17;103822;1282;99883;-76
2022/03/02 02:04:44;;;;;;;2.00;2.00;;;;;;;-0.22;54.24;101666.38;104143;1280;140274;-74
2022/03/02 02:07:12;;;;;;;1.90;1.90;;;;;;;-0.21;54.12;101660.87;104076;1280;96987;-74
2022/03/02 02:09:40;;;;;;;2.00;2.00;;;;;;;-0.18;53.85;101656.43;103888;1281;140271;-73
2022/03/02 02:12:09;;;;;;;2.30;2.20;;;;;;;-0.18;53.72;101653.83;104122;1279;109173;-74
2022/03/02 02:14:36;;;;;;;1.90;1.90;;;;;;;-0.20;53.50;101657.59;104088;1281;99913;-74
2022/03/02 02:17:04;;;;;;;2.20;2.10;;;;;;;-0.24;53.63;101655.83;103813;1280;140806;-74
2022/03/02 02:19:32;;;;;;;2.20;2.10;;;;;;;-0.28;54.20;101653.77;104123;1279;95775;-74
2022/03/02 02:22:00;;;;;;;2.00;2.00;;;;;;;-0.31;54.44;101645.96;103894;1279;141060;-74
2022/03/02 02:24:27;;;;;;;2.00;2.00;;;;;;;-0.28;54.04;101643.66;104038;1280;110136;-74
2022/03/02 02:26:55;;;;;;;2.00;2.00;;;;;;;-0.32;53.94;101642.45;104028;1281;98836;-74
2022/03/02 02:29:25;;;;;;;1.90;1.90;;;;;;;-0.37;54.18;101642.79;103899;1281;140114;-74
2022/03/02 02:31:53;;;;;;;2.10;2.00;;;;;;;-0.39;53.75;101637.83;104099;1281;95267;-74
2022/03/02 02:34:21;;;;;;;2.60;2.50;;;;;;;-0.43;54.36;101635.39;103992;1280;139573;-74
2022/03/02 02:36:49;;;;;;;2.20;2.10;;;;;;;-0.52;54.84;101636.80;104057;1280;111057;-74
2022/03/02 02:39:17;;;;;;;2.00;2.00;;;;;;;-0.56;55.24;101634.91;103701;1281;142659;-76
2022/03/02 02:41:45;;;;;;;2.00;2.00;;;;;;;-0.60;55.13;101636.14;104089;1280;109221;-74
2022/03/02 02:44:12;;;;;;;2.20;2.10;;;;;;;-0.71;55.32;101634.84;104081;1279;97091;-74
2022/03/02 02:46:42;;;;;;;2.20;2.10;;;;;;;-0.76;55.51;101633.80;103934;1280;139906;-74
2022/03/02 02:49:10;;;;;;;2.20;2.10;;;;;;;-0.78;55.34;101629.33;104166;1279;110565;-76
2022/03/02 02:51:38;;;;;;;2.20;2.10;;;;;;;-0.71;55.10;101629.77;104017;1279;141866;-75
2022/03/02 02:54:05;;;;;;;2.20;2.10;;;;;;;-0.66;54.70;101629.63;104075;1279;110745;-75
2022/03/02 02:56:33;;;;;;;2.20;2.10;;;;;;;-0.61;54.67;101628.92;104061;1279;95204;-75
2022/03/02 02:59:02;;;;;;;2.20;2.10;;;;;;;-0.66;54.81;101630.50;103979;1279;140598;-75
2022/03/02 03:01:30;;;;;;;2.20;2.10;;;;;;;-0.74;55.11;101626.70;104093;1279;109414;-76
2022/03/02 03:03:58;;;;;;;2.20;2.10;;;;;;;-0.74;55.00;101629.86;103924;1279;139842;-75
2022/03/02 03:06:26;;;;;;;2.30;2.20;;;;;;;-0.71;55.12;101632.23;104024;1279;108725;-74
2022/03/02 03:08:53;;;;;;;2.30;2.20;;;;;;;-0.76;55.27;101627.30;104002;1281;95148;-75
2022/03/02 03:11:21;;;;;;;2.00;2.00;;;;;;;-0.82;55.24;101625.00;103970;1279;139862;-76
2022/03/02 03:13:49;;;;;;;2.30;2.20;;;;;;;-0.89;55.44;101627.84;103779;1282;110157;-75
2022/03/02 03:16:17;;;;;;;2.30;2.20;;;;;;;-0.98;55.38;101624.17;103955;1279;139078;-74
2022/03/02 03:18:44;;;;;;;2.30;2.20;;;;;;;-0.96;55.55;101619.39;103992;1280;109464;-74
2022/03/02 03:21:12;;;;;;;2.00;2.00;;;;;;;-0.84;55.11;101616.00;103920;1279;140105;-74
2022/03/02 03:23:40;;;;;;;2.20;2.10;;;;;;;-0.75;54.60;101617.41;104178;1281;95228;-74
2022/03/02 03:26:07;;;;;;;2.30;2.20;;;;;;;-0.71;54.28;101618.27;104064;1281;110071;-75
2022/03/02 03:28:35;;;;;;;2.50;2.40;;;;;;;-0.78;54.54;101611.55;103964;1279;138782;-75
2022/03/02 03:31:03;;;;;;;2.20;2.10;;;;;;;-0.86;54.74;101610.73;104125;1280;110128;-75
2022/03/02 03:33:31;;;;;;;2.10;2.10;;;;;;;-0.91;55.17;101607.91;103958;1281;141428;-75
2022/03/02 03:35:59;;;;;;;2.00;2.00;;;;;;;-0.94;55.25;101605.32;104094;1280;97804;-75
2022/03/02 03:38:26;;;;;;;2.20;2.10;;;;;;;-0.91;55.33;101599.37;104013;1281;108671;-75
2022/03/02 03:40:54;;;;;;;2.20;2.10;;;;;;;-0.90;55.01;101596.80;103971;1279;140938;-74
2022/03/02 03:43:22;;;;;;;2.20;2.10;;;;;;;-0.89;55.33;101596.66;104066;1281;109263;-75
2022/03/02 03:45:51;;;;;;;2.70;2.60;;;;;;;-0.90;55.15;101597.31;103967;1279;141627;-75
2022/03/02 03:48:18;;;;;;;2.30;2.20;;;;;;;-0.90;55.30;101591.20;104039;1279;95627;-74
2022/03/02 03:50:47;;;;;;;2.30;2.20;;;;;;;-0.84;55.36;101591.09;104106;1279;110358;-74
2022/03/02 03:53:14;;;;;;;2.20;2.10;;;;;;;-0.79;54.64;101587.28;103962;1279;139459;-74
2022/03/02 03:55:42;;;;;;;2.20;2.10;;;;;;;-0.78;54.34;101586.60;103941;1281;109241;-75
2022/03/02 03:58:10;;;;;;;2.20;2.10;;;;;;;-0.83;54.44;101581.70;103960;1281;140613;-74
2022/03/02 04:00:38;;;;;;;2.30;2.20;;;;;;;-0.88;54.48;101582.05;104131;1281;95153;-74
2022/03/02 04:03:05;;;;;;;2.50;2.40;;;;;;;-0.91;54.75;101580.52;103959;1281;140202;-76
2022/03/02 04:05:33;;;;;;;2.30;2.20;;;;;;;-0.93;55.02;101579.58;104100;1281;99537;-74
2022/03/02 04:08:01;;;;;;;2.00;2.00;;;;;;;-0.97;55.42;101581.66;103827;1281;109760;-74
2022/03/02 04:10:29;;;;;;;2.30;2.20;;;;;;;-1.02;55.57;101580.63;104028;1279;139940;-74
2022/03/02 04:12:57;;;;;;;2.20;2.10;;;;;;;-0.96;55.64;101578.95;104097;1281;95251;-75
2022/03/02 04:15:24;;;;;;;2.40;2.30;;;;;;;-0.93;55.57;101572.61;103913;1281;140982;-74
2022/03/02 04:17:52;;;;;;;2.40;2.30;;;;;;;-0.99;55.71;101571.67;103880;1281;98705;-75
2022/03/02 04:20:21;;;;;;;2.20;2.10;;;;;;;-1.00;55.87;101572.33;104048;1280;108222;-74
2022/03/02 04:22:49;;;;;;;2.30;2.20;;;;;;;-0.94;55.57;101572.74;104037;1279;139774;-74
2022/03/02 04:25:17;;;;;;;2.20;2.10;;;;;;;-1.02;55.73;101572.60;104020;1281;95858;-75
2022/03/02 04:27:44;;;;;;;2.30;2.20;;;;;;;-1.06;56.04;101570.16;103995;1281;140863;-74
2022/03/02 04:30:13;;;;;;;2.40;2.30;;;;;;;-1.13;56.08;101572.00;104104;1281;99277;-74
2022/03/02 04:32:42;;;;;;;2.20;2.10;;;;;;;-1.13;56.19;101574.25;103969;1281;109442;-75
2022/03/02 04:35:11;;;;;;;2.20;2.10;;;;;;;-1.01;56.20;101571.92;104019;1280;139717;-77
2022/03/02 04:37:40;;;;;;;2.00;2.00;;;;;;;-0.93;55.12;101570.50;104146;1281;95654;-75
2022/03/02 04:40:10;;;;;;;2.20;2.10;;;;;;;-0.95;55.06;101571.10;104079;1281;139787;-75
2022/03/02 04:42:38;;;;;;;2.30;2.20;;;;;;;-1.02;55.43;101567.70;104238;1280;98266;-74
2022/03/02 04:45:06;;;;;;;2.50;2.40;;;;;;;-1.12;55.51;101571.83;103860;1281;140502;-74
2022/03/02 04:47:34;;;;;;;2.30;2.20;;;;;;;-1.13;55.59;101570.42;104101;1280;95318;-74
2022/03/02 04:50:03;;;;;;;2.20;2.10;;;;;;;-1.07;55.39;101574.14;104109;1280;95882;-76
2022/03/02 04:52:31;;;;;;;2.50;2.40;;;;;;;-1.20;55.95;101572.91;103809;1281;139947;-73
2022/03/02 04:55:05;;;;;;;2.40;2.30;;;;;;;-1.21;55.78;101572.19;103975;1281;98931;-74
2022/03/02 04:57:35;;;;;;;2.50;2.40;;;;;;;-1.16;55.34;101568.52;103988;1280;139759;-74
2022/03/02 05:00:10;;;;;;;2.30;2.20;;;;;;;-1.17;55.38;101571.45;104113;1280;95278;-75
2022/03/02 05:02:41;;;;;;;2.30;2.20;;;;;;;-1.20;55.57;101572.58;104336;1279;95224;-74
2022/03/02 05:05:11;;;;;;;2.40;2.30;;;;;;;-1.16;55.60;101569.23;103999;1280;139821;-75
2022/03/02 05:07:40;;;;;;;2.30;2.20;;;;;;;-1.14;55.54;101566.38;104109;1281;99830;-76
2022/03/02 05:10:10;;;;;;;2.30;2.20;;;;;;;-1.14;55.45;101565.33;104090;1279;140200;-75
2022/03/02 05:12:39;;;;;;;2.40;2.30;;;;;;;-1.19;55.67;101560.10;104013;1281;95456;-75
2022/03/02 05:15:08;;;;;;;2.50;2.40;;;;;;;-1.20;55.76;101558.14;103999;1279;140946;-75
2022/03/02 05:17:36;;;;;;;2.20;2.10;;;;;;;-1.13;55.71;101556.30;104105;1279;110288;-74
2022/03/02 05:20:06;;;;;;;2.10;2.10;;;;;;;-1.11;55.93;101551.88;104051;1280;96563;-74
2022/03/02 05:22:34;;;;;;;2.40;2.30;;;;;;;-1.05;55.69;101551.02;104204;1279;138445;-75
2022/03/02 05:25:02;;;;;;;2.20;2.10;;;;;;;-1.08;55.73;101545.50;103995;1281;95546;-76
2022/03/02 05:27:30;;;;;;;2.40;2.30;;;;;;;-1.15;55.97;101545.25;104022;1281;139800;-74
2022/03/02 05:29:58;;;;;;;2.60;2.50;;;;;;;-1.15;55.94;101547.67;104096;1280;110559;-74
2022/03/02 05:32:25;;;;;;;2.50;2.40;;;;;;;-1.12;55.91;101548.67;104027;1281;100353;-75
2022/03/02 05:34:53;;;;;;;2.20;2.10;;;;;;;-1.12;55.96;101547.06;104042;1280;139572;-76
2022/03/02 05:37:21;;;;;;;2.20;2.10;;;;;;;-1.10;55.87;101546.51;103992;1281;95480;-75
2022/03/02 05:39:49;;;;;;;2.40;2.30;;;;;;;-1.08;55.79;101541.67;104089;1279;139353;-75
2022/03/02 05:42:17;;;;;;;2.50;2.40;;;;;;;-1.05;56.08;101542.85;104136;1279;110928;-75
2022/03/02 05:44:46;;;;;;;2.40;2.30;;;;;;;-1.03;56.20;101540.30;104104;1280;100524;-74
2022/03/02 05:47:14;;;;;;;2.30;2.20;;;;;;;-1.04;56.04;101542.52;103969;1281;142289;-75
2022/03/02 05:49:43;;;;;;;2.00;2.00;;;;;;;-1.08;56.58;101544.99;104182;1279;95157;-75
2022/03/02 05:52:10;;;;;;;2.30;2.20;;;;;;;-1.02;56.34;101539.81;104372;1279;140538;-74
2022/03/02 05:54:38;;;;;;;2.50;2.40;;;;;;;-0.96;56.08;101536.59;103906;1281;110300;-73
2022/03/02 05:57:06;;;;;;;2.70;2.60;;;;;;;-0.99;55.91;101543.45;104055;1279;140924;-75
2022/03/02 05:59:34;;;;;;;2.40;2.30;;;;;;;-1.03;56.13;101539.10;104207;1280;109741;-75
2022/03/02 06:02:01;;;;;;;2.30;2.20;;;;;;;-0.97;56.34;101539.16;103932;1281;95250;-76
2022/03/02 06:04:33;;;;;;;2.00;2.00;;;;;;;-0.96;56.12;101537.61;104124;1279;139232;-76
2022/03/02 06:07:01;;;;;;;2.30;2.20;;;;;;;-0.97;56.34;101534.11;104017;1281;107460;-76
2022/03/02 06:09:29;;;;;;;2.60;2.50;;;;;;;-0.89;56.43;101535.27;104040;1281;139694;-75
2022/03/02 06:11:58;;;;;;;2.30;2.20;;;;;;;-0.88;56.33;101530.96;105255;1279;108210;-74
2022/03/02 06:14:26;;;;;;;2.30;2.20;;;;;;;-0.80;56.39;101533.86;105207;1280;95152;-74
2022/03/02 06:16:54;;;;;;;2.20;2.10;;;;;;;-0.70;56.11;101539.48;105172;1279;138247;-76
2022/03/02 06:19:22;;;;;;;2.00;2.00;;;;;;;-0.67;55.94;101537.70;105242;1279;110384;-76
2022/03/02 06:21:50;;;;;;;2.60;2.50;;;;;;;-0.63;56.41;101536.63;105023;1281;140576;-74
2022/03/02 06:24:18;;;;;;;2.40;2.30;;;;;;;-0.60;56.25;101537.05;104723;1280;108453;-76
2022/03/02 06:26:46;;;;;;;1.90;1.90;;;;;;;-0.49;56.12;101537.48;104180;1279;95652;-77
2022/03/02 06:29:13;;;;;;;2.00;2.00;;;;;;;-0.41;55.88;101541.79;103942;1279;140137;-75
2022/03/02 06:31:41;;;;;;;2.00;2.00;;;;;;;-0.36;55.69;101536.91;103991;1281;110165;-75
2022/03/02 06:34:09;;;;;;;2.00;2.00;;;;;;;-0.34;55.57;101532.81;104070;1279;140533;-75
2022/03/02 06:36:37;;;;;;;2.00;2.00;;;;;;;-0.30;55.47;101531.17;104164;1279;108312;-75
2022/03/02 06:39:05;;;;;;;2.00;2.00;;;;;;;-0.24;55.49;101529.51;103921;1279;141150;-75
2022/03/02 06:41:52;;;;;;;1.90;1.90;;;;;;;-0.19;55.35;101532.48;104097;1279;95959;-75
2022/03/02 06:44:19;;;;;;;2.10;2.10;;;;;;;-0.24;55.62;101537.86;104179;1279;110274;-76
2022/03/02 06:46:57;;;;;;;1.90;1.90;;;;;;;-0.27;55.45;101528.16;104100;1279;139664;-74
2022/03/02 06:49:25;;;;;;;2.10;2.00;;;;;;;-0.24;55.64;101528.45;104124;1279;109369;-74
2022/03/02 06:51:59;;;;;;;2.40;2.30;;;;;;;-0.17;55.63;101530.10;104137;1279;138983;-76
2022/03/02 06:54:32;;;;;;;2.00;2.00;;;;;;;-0.06;55.64;101526.30;104315;1279;95144;-76
2022/03/02 06:57:02;;;;;;;1.90;1.90;;;;;;;-0.02;55.42;101524.88;104231;1279;110042;-75
2022/03/02 06:59:39;;;;;;;2.00;2.00;;;;;;;-0.00;55.40;101526.85;106113;1279;140952;-75
2022/03/02 07:02:08;;;;;;;1.80;1.80;;;;;;;0.10;55.29;101530.31;104114;1279;107728;-75
2022/03/02 07:04:41;;;;;;;1.80;1.80;;;;;;;0.23;55.18;101527.29;104060;1279;139258;-75
2022/03/02 07:07:11;;;;;;;2.20;2.10;;;;;;;0.35;55.09;101523.67;104087;1279;95142;-75
2022/03/02 07:09:39;;;;;;;1.90;1.90;;;;;;;0.45;55.03;101523.30;104091;1278;139874;-74
2022/03/02 07:12:08;;;;;;;1.90;1.90;;;;;;;0.57;55.11;101521.41;104073;1281;99768;-75
2022/03/02 07:14:36;;;;;;;1.60;1.60;;;;;;;0.68;54.88;101521.62;104406;1279;109699;-75
2022/03/02 07:17:05;;;;;;;1.70;1.70;;;;;;;0.76;54.42;101516.80;104182;1280;139955;-75
2022/03/02 07:19:33;;;;;;;1.90;1.90;;;;;;;0.90;54.65;101516.33;107129;1279;94199;-76
2022/03/02 07:22:07;;;;;;;1.80;1.80;;;;;;;1.06;54.22;101513.88;104350;1280;139260;-75
2022/03/02 07:24:39;;;;;;;1.80;1.80;;;;;;;1.20;53.72;101518.13;104242;1279;100047;-74
2022/03/02 07:27:07;;;;;;;1.90;1.90;;;;;;;1.25;53.39;101512.87;104128;1279;138232;-77
2022/03/02 07:29:37;;;;;;;2.00;2.00;;;;;;;1.27;53.28;101513.10;104056;1279;95600;-75
2022/03/02 07:32:06;;;;;;;1.80;1.80;;;;;;;1.25;53.05;101506.93;104125;1279;95766;-75
2022/03/02 07:34:33;;;;;;;2.20;2.10;;;;;;;1.25;53.13;101509.38;103990;1279;140569;-75
2022/03/02 07:37:01;;;;;;;1.60;1.60;;;;;;;1.25;53.19;101511.10;104195;1281;98908;-75
2022/03/02 07:39:29;;;;;;;1.70;1.70;;;;;;;1.17;53.17;101507.38;103859;1281;139169;-74
2022/03/02 07:41:57;;;;;;;1.70;1.70;;;;;;;1.21;53.37;101508.38;103830;1282;95204;-75
2022/03/02 07:44:27;;;;;;;1.60;1.60;;;;;;;1.34;53.34;101509.09;103969;1281;95234;-74
2022/03/02 07:46:56;;;;;;;1.60;1.60;;;;;;;1.43;53.38;101507.46;104009;1279;138965;-73
2022/03/02 07:49:24;;;;;;;1.50;1.50;;;;;;;1.58;53.17;101499.64;104152;1281;100076;-75
2022/03/02 07:51:54;;;;;;;1.60;1.60;;;;;;;1.66;53.23;101496.55;104051;1279;139020;-75
2022/03/02 07:54:23;;;;;;;1.60;1.60;;;;;;;1.78;53.19;101495.80;104122;1281;95387;-75
2022/03/02 07:56:51;;;;;;;1.40;1.40;;;;;;;1.99;52.34;101492.52;104076;1281;95421;-75
2022/03/02 07:59:21;;;;;;;1.50;1.50;;;;;;;2.16;51.80;101494.55;103681;1281;139150;-75
2022/03/02 08:01:48;;;;;;;1.60;1.60;;;;;;;2.13;51.39;101492.01;104158;1279;100399;-75
2022/03/02 08:04:17;;;;;;;1.60;1.60;;;;;;;2.17;51.48;101486.86;103777;1280;139057;-74
2022/03/02 08:06:44;;;;;;;1.50;1.50;;;;;;;2.26;51.84;101485.32;104207;1279;96419;-75
2022/03/02 08:09:13;;;;;;;1.40;1.40;;;;;;;2.35;51.63;101478.56;103841;1279;140304;-75
2022/03/02 08:11:40;;;;;;;1.50;1.50;;;;;;;2.41;51.33;101478.00;104025;1281;110247;-74
2022/03/02 08:14:08;;;;;;;1.50;1.50;;;;;;;2.47;50.98;101472.52;104157;1279;99780;-73
2022/03/02 08:16:36;;;;;;;1.50;1.50;;;;;;;2.49;50.70;101463.63;104082;1279;140395;-74
2022/03/02 08:19:05;;;;;;;1.50;1.50;;;;;;;2.46;50.96;101463.23;104198;1279;95412;-75
2022/03/02 08:21:35;;;;;;;1.50;1.50;;;;;;;2.53;50.66;101461.63;103974;1281;140298;-75
2022/03/02 08:24:05;;;;;;;1.40;1.40;;;;;;;2.64;50.48;101457.17;104195;1279;110110;-74
2022/03/02 08:26:35;;;;;;;1.40;1.40;;;;;;;2.71;50.20;101455.91;104420;1279;100558;-74
2022/03/02 08:29:05;;;;;;;1.40;1.40;;;;;;;2.79;50.41;101462.23;104165;1279;139127;-74
2022/03/02 08:31:36;;;;;;;1.30;1.30;;;;;;;2.88;49.78;101458.57;104235;1279;95195;-74
2022/03/02 08:34:04;;;;;;;1.30;1.30;;;;;;;2.94;49.98;101456.42;104221;1280;139429;-74
2022/03/02 08:36:34;;;;;;;1.30;1.30;;;;;;;3.03;50.12;101455.40;104867;1279;110368;-75
2022/03/02 08:39:05;;;;;;;1.20;1.20;;;;;;;3.09;49.78;101453.42;105466;1279;99369;-73
2022/03/02 08:41:34;;;;;;;1.20;1.20;;;;;;;3.18;49.44;101451.67;105233;1280;138072;-74
2022/03/02 08:44:03;;;;;;;1.30;1.30;;;;;;;3.28;49.18;101446.80;105298;1281;95341;-73
2022/03/02 08:46:31;;;;;;;1.20;1.20;;;;;;;3.33;49.49;101443.20;105211;1280;138713;-74
2022/03/02 08:48:59;;;;;;;1.30;1.30;;;;;;;3.43;49.35;101433.93;105090;1281;108720;-75
2022/03/02 08:51:28;;;;;;;1.30;1.30;;;;;;;3.54;48.94;101428.52;105152;1281;138667;-76
2022/03/02 08:54:04;;;;;;;1.20;1.20;;;;;;;3.69;48.92;101428.27;104927;1281;109273;-75
2022/03/02 08:56:35;;;;;;;1.20;1.20;;;;;;;3.79;48.73;101424.42;104524;1282;95665;-74
2022/03/02 08:59:04;;;;;;;1.30;1.30;;;;;;;3.94;48.36;101419.40;104725;1281;140681;-74
2022/03/02 09:01:32;;;;;;;1.20;1.20;;;;;;;4.09;47.69;101415.98;105007;1280;110766;-74
2022/03/02 09:04:01;;;;;;;1.10;1.10;;;;;;;4.17;46.78;101418.75;104545;1282;137938;-76
2022/03/02 09:06:31;;;;;;;1.10;1.10;;;;;;;4.24;46.21;101413.40;104983;1281;107302;-74
2022/03/02 09:08:59;;;;;;;1.10;1.10;;;;;;;4.39;46.33;101412.23;104834;1280;96385;-74
2022/03/02 09:11:27;;;;;;;1.30;1.30;;;;;;;4.59;46.44;101409.01;104871;1281;138967;-74
2022/03/02 09:13:55;;;;;;;1.30;1.30;;;;;;;5.39;45.62;101405.95;104961;1282;110360;-74
2022/03/02 09:16:23;;;;;;;1.10;1.10;;;;;;;7.91;41.92;101395.44;104902;1281;141115;-75
2022/03/02 09:18:50;;;;;;;0.80;0.80;;;;;;;10.46;38.26;101388.32;105080;1281;109334;-74
2022/03/02 09:21:20;;;;;;;0.40;0.40;;;;;;;12.41;33.23;101378.59;105163;1281;138710;-74
2022/03/02 09:23:49;;;;;;;0.40;0.30;;;;;;;12.21;31.15;101384.10;104785;1284;95709;-74
2022/03/02 09:26:18;;;;;;;0.40;0.30;;;;;;;11.32;32.57;101386.52;105054;1282;110417;-75
2022/03/02 09:28:50;;;;;;;0.40;0.40;;;;;;;10.60;33.39;101385.42;105047;1281;140064;-75
2022/03/02 09:31:20;;;;;;;0.40;0.40;;;;;;;10.15;33.91;101378.00;105065;1284;109386;-76
2022/03/02 09:33:54;;;;;;;0.50;0.40;;;;;;;9.69;34.36;101385.83;105505;1281;138815;-74
2022/03/02 09:36:24;;;;;;;0.60;0.60;;;;;;;9.55;35.34;101387.15;104790;1281;95891;-74
2022/03/02 09:38:53;;;;;;;0.50;0.50;;;;;;;10.49;34.96;101376.80;104615;1281;109160;-75
2022/03/02 09:41:48;;;;;;;0.70;0.70;;;;;;;11.92;33.51;101370.83;104543;1282;140177;-74
2022/03/02 09:44:18;;;;;;;0.50;0.40;;;;;;;14.06;30.35;101361.67;104300;1281;109940;-74
2022/03/02 09:46:55;;;;;;;0.40;0.40;;;;;;;15.57;28.34;101348.86;103879;1282;140058;-75
2022/03/02 09:49:24;;;;;;;0.40;0.30;;;;;;;17.08;27.22;101348.45;103900;1283;95224;-76
2022/03/02 09:51:59;;;;;;;0.40;0.20;;;;;;;18.48;25.21;101340.80;103707;1281;139544;-76
2022/03/02 09:54:26;;;;;;;0.40;0.20;;;;;;;19.90;23.64;101336.88;103993;1281;100096;-76
2022/03/02 09:56:55;;;;;;;0.40;0.20;;;;;;;20.98;21.52;101338.33;103940;1281;109239;-75
2022/03/02 09:59:26;;;;;;;0.40;0.10;;;;;;;22.03;21.09;101338.14;103640;1281;140057;-75
2022/03/02 10:01:56;;;;;;;0.40;0.10;;;;;;;22.59;19.18;101332.98;103996;1281;96997;-76
2022/03/02 10:04:29;;;;;;;0.40;0.10;;;;;;;23.17;19.58;101323.38;103950;1282;139531;-77
2022/03/02 10:07:26;;;;;;;0.40;0.10;;;;;;;24.15;18.58;101323.27;104428;1281;100510;-75
2022/03/02 10:09:48;;;;;;;0.40;0.10;;;;;;;24.99;17.42;101322.46;103814;1281;139537;-77
2022/03/02 10:12:16;;;;;;;0.40;0.10;;;;;;;25.60;16.81;101318.59;103951;1281;95557;-74
2022/03/02 10:14:44;;;;;;;0.40;0.10;;;;;;;26.13;16.44;101314.77;103973;1280;95685;-76
2022/03/02 10:17:17;;;;;;;0.40;0.10;;;;;;;26.55;15.78;101311.52;103796;1281;140689;-76
2022/03/02 10:19:52;;;;;;;0.40;0.00;;;;;;;27.03;15.16;101313.30;104023;1281;99797;-75
2022/03/02 10:22:47;;;;;;;0.40;0.10;;;;;;;27.44;14.47;101309.10;103771;1281;139376;-75
2022/03/02 10:25:16;;;;;;;0.40;0.00;;;;;;;27.74;14.33;101308.59;103838;1282;95287;-76
2022/03/02 10:28:01;;;;;;;0.40;0.10;;;;;;;27.68;13.87;101303.05;103890;1281;140548;-76
2022/03/02 10:30:33;;;;;;;0.40;0.00;;;;;;;28.05;13.87;101298.84;103933;1281;110320;-76
2022/03/02 10:33:22;;;;;;;0.40;0.00;;;;;;;28.35;13.87;101299.20;103893;1281;103487;-77
2022/03/02 10:35:51;;;;;;;0.40;0.00;;;;;;;28.71;13.30;101298.23;103899;1281;139465;-75
2022/03/02 10:38:45;;;;;;;0.40;0.00;;;;;;;28.79;13.08;101293.86;103725;1282;95249;-76
2022/03/02 10:41:14;;;;;;;0.40;0.00;;;;;;;28.73;12.93;101292.02;103806;1281;138892;-74
2022/03/02 10:43:52;;;;;;;0.40;0.00;;;;;;;28.87;13.11;101291.36;104062;1279;109777;-73
2022/03/02 10:46:23;;;;;;;0.40;0.00;;;;;;;28.94;12.97;101287.77;104337;1279;140386;-77
2022/03/02 10:49:20;;;;;;;0.40;0.00;;;;;;;27.14;13.53;101286.48;104428;1279;108287;-77
2022/03/02 10:51:48;;;;;;;0.40;0.00;;;;;;;24.12;15.39;101292.73;103975;1279;139849;-74
2022/03/02 10:54:20;;;;;;;0.40;0.00;;;;;;;22.95;16.41;101287.09;104002;1279;95321;-75
2022/03/02 10:56:51;;;;;;;0.40;0.10;;;;;;;21.76;17.05;101285.80;103917;1279;110227;-75
2022/03/02 10:59:22;;;;;;;0.40;0.00;;;;;;;20.23;18.27;101287.27;103976;1282;139870;-75
2022/03/02 11:01:51;;;;;;;0.40;0.10;;;;;;;19.02;19.39;101283.28;104217;1279;109600;-75
2022/03/02 11:04:21;;;;;;;0.40;0.10;;;;;;;17.91;20.73;101283.41;103929;1279;141082;-76
2022/03/02 11:06:49;;;;;;;0.40;0.10;;;;;;;17.03;21.50;101284.60;104374;1279;95172;-75
2022/03/02 11:09:37;;;;;;;0.40;0.10;;;;;;;15.58;22.56;101276.49;104031;1279;140239;-77
2022/03/02 11:12:05;;;;;;;0.40;0.20;;;;;;;14.59;24.07;101273.63;104064;1279;99651;-77
2022/03/02 11:14:33;;;;;;;0.40;0.20;;;;;;;14.00;24.73;101263.11;103827;1282;108806;-77
2022/03/02 11:17:17;;;;;;;0.40;0.20;;;;;;;13.44;25.58;101265.23;103719;1282;140021;-75
2022/03/02 11:19:53;;;;;;;0.40;0.30;;;;;;;12.77;26.13;101268.85;104168;1279;96907;-75
2022/03/02 11:22:22;;;;;;;0.40;0.30;;;;;;;12.08;26.88;101263.11;104007;1279;139348;-77
2022/03/02 11:24:57;;;;;;;0.40;0.30;;;;;;;11.56;27.88;101262.04;104101;1279;99990;-77